BEL1635 EBBR-LFPG
Flight info
| Callsign | BEL1635 |
|---|---|
| Flight time | 0h 38m |
| Altitude | 19000 |
| Route | CIV Y50 IDOKO/N0387F170 Y50 MATIX |
| Aircraft | A319/M-SDE3FGHIRWY/LB1 |
Departure
| Time | 2026-04-30 10:12 |
|---|---|
| Airport | Brussels Airport (EBBR) |
Arrival
| Time | 2026-04-30 10:51 |
|---|---|
| Airport | Charles de Gaulle International Airport (LFPG) |
| Time | Latitude | Longitude | Altitude | Speed | Heading |
|---|---|---|---|---|---|
| 2026-04-30 09:59 | 50.90327 | 4.48315 | 120 ft | 0 kts | 155° |
| 2026-04-30 10:02 | 50.90337 | 4.48308 | 121 ft | 4 kts | 154° |
| 2026-04-30 10:02 | 50.90360 | 4.48289 | 121 ft | 4 kts | 149° |
| 2026-04-30 10:03 | 50.90382 | 4.48265 | 116 ft | 4 kts | 136° |
| 2026-04-30 10:03 | 50.90397 | 4.48233 | 119 ft | 4 kts | 95° |
| 2026-04-30 10:03 | 50.90397 | 4.48217 | 118 ft | 0 kts | 65° |
| 2026-04-30 10:05 | 50.90398 | 4.48219 | 118 ft | 1 kts | 65° |
| 2026-04-30 10:06 | 50.90408 | 4.48254 | 120 ft | 6 kts | 65° |
| 2026-04-30 10:06 | 50.90434 | 4.48343 | 117 ft | 12 kts | 65° |
| 2026-04-30 10:06 | 50.90475 | 4.48489 | 120 ft | 17 kts | 66° |
| 2026-04-30 10:06 | 50.90527 | 4.48670 | 118 ft | 18 kts | 65° |
| 2026-04-30 10:07 | 50.90581 | 4.48855 | 120 ft | 19 kts | 64° |
| 2026-04-30 10:07 | 50.90634 | 4.49040 | 118 ft | 19 kts | 65° |
| 2026-04-30 10:07 | 50.90582 | 4.49180 | 122 ft | 17 kts | 155° |
| 2026-04-30 10:07 | 50.90471 | 4.49260 | 120 ft | 19 kts | 155° |
| 2026-04-30 10:08 | 50.90357 | 4.49346 | 123 ft | 17 kts | 148° |
| 2026-04-30 10:08 | 50.90244 | 4.49389 | 127 ft | 19 kts | 194° |
| 2026-04-30 10:08 | 50.90120 | 4.49338 | 131 ft | 18 kts | 195° |
| 2026-04-30 10:08 | 50.90000 | 4.49288 | 132 ft | 18 kts | 194° |
| 2026-04-30 10:09 | 50.89880 | 4.49240 | 139 ft | 17 kts | 194° |
| 2026-04-30 10:09 | 50.89774 | 4.49197 | 145 ft | 15 kts | 194° |
| 2026-04-30 10:09 | 50.89676 | 4.49157 | 150 ft | 15 kts | 195° |
| 2026-04-30 10:09 | 50.89582 | 4.49073 | 155 ft | 16 kts | 202° |
| 2026-04-30 10:10 | 50.89477 | 4.49029 | 159 ft | 15 kts | 193° |
| 2026-04-30 10:10 | 50.89387 | 4.49020 | 163 ft | 11 kts | 148° |
| 2026-04-30 10:10 | 50.89338 | 4.49086 | 166 ft | 8 kts | 158° |
| 2026-04-30 10:10 | 50.89251 | 4.49060 | 172 ft | 15 kts | 194° |
| 2026-04-30 10:11 | 50.89166 | 4.49029 | 176 ft | 11 kts | 187° |
| 2026-04-30 10:11 | 50.89148 | 4.49096 | 176 ft | 0 kts | 71° |
| 2026-04-30 10:11 | 50.89148 | 4.49097 | 176 ft | 2 kts | 71° |
| 2026-04-30 10:12 | 50.89232 | 4.49462 | 176 ft | 75 kts | 70° |
| 2026-04-30 10:12 | 50.89490 | 4.50580 | 176 ft | 139 kts | 70° |
| 2026-04-30 10:12 | 50.89849 | 4.52138 | 637 ft | 151 kts | 71° |
| 2026-04-30 10:12 | 50.90257 | 4.53671 | 1391 ft | 151 kts | 69° |
| 2026-04-30 10:13 | 50.90827 | 4.55087 | 2122 ft | 164 kts | 47° |
| 2026-04-30 10:13 | 50.92047 | 4.55629 | 2508 ft | 210 kts | 360° |
| 2026-04-30 10:13 | 50.93444 | 4.54501 | 2834 ft | 249 kts | 316° |
| 2026-04-30 10:13 | 50.94247 | 4.51922 | 3259 ft | 278 kts | 281° |
| 2026-04-30 10:14 | 50.94423 | 4.48803 | 4034 ft | 289 kts | 268° |
| 2026-04-30 10:14 | 50.94395 | 4.45582 | 5013 ft | 294 kts | 266° |
| 2026-04-30 10:14 | 50.93943 | 4.39174 | 7009 ft | 295 kts | 245° |
| 2026-04-30 10:15 | 50.92982 | 4.36326 | 7951 ft | 293 kts | 230° |
| 2026-04-30 10:15 | 50.91598 | 4.33961 | 8899 ft | 293 kts | 219° |
| 2026-04-30 10:15 | 50.90115 | 4.31716 | 9835 ft | 296 kts | 219° |
| 2026-04-30 10:15 | 50.88610 | 4.29450 | 10629 ft | 305 kts | 219° |
| 2026-04-30 10:16 | 50.87000 | 4.27050 | 10955 ft | 329 kts | 219° |
| 2026-04-30 10:16 | 50.85268 | 4.24480 | 11233 ft | 352 kts | 220° |
| 2026-04-30 10:16 | 50.83438 | 4.21759 | 11729 ft | 365 kts | 220° |
| 2026-04-30 10:17 | 50.79695 | 4.16192 | 13156 ft | 377 kts | 220° |
| 2026-04-30 10:17 | 50.75819 | 4.10436 | 14566 ft | 387 kts | 220° |
| 2026-04-30 10:17 | 50.73845 | 4.07510 | 15230 ft | 390 kts | 220° |
| 2026-04-30 10:18 | 50.71854 | 4.04567 | 15903 ft | 394 kts | 220° |
| 2026-04-30 10:18 | 50.69843 | 4.01598 | 16571 ft | 397 kts | 220° |
| 2026-04-30 10:18 | 50.67817 | 3.98609 | 17232 ft | 401 kts | 220° |
| 2026-04-30 10:19 | 50.63727 | 3.92575 | 18559 ft | 408 kts | 220° |
| 2026-04-30 10:19 | 50.61591 | 3.89625 | 19058 ft | 410 kts | 214° |
| 2026-04-30 10:19 | 50.59186 | 3.87230 | 19244 ft | 407 kts | 204° |
| 2026-04-30 10:19 | 50.56533 | 3.85545 | 19303 ft | 418 kts | 193° |
| 2026-04-30 10:20 | 50.53638 | 3.84615 | 19295 ft | 427 kts | 183° |
| 2026-04-30 10:20 | 50.47725 | 3.84967 | 19294 ft | 426 kts | 171° |
| 2026-04-30 10:20 | 50.44770 | 3.85482 | 19283 ft | 426 kts | 171° |
| 2026-04-30 10:21 | 50.41857 | 3.85978 | 19290 ft | 426 kts | 171° |
| 2026-04-30 10:21 | 50.38902 | 3.86475 | 19291 ft | 426 kts | 171° |
| 2026-04-30 10:21 | 50.35945 | 3.86973 | 19286 ft | 426 kts | 171° |
| 2026-04-30 10:21 | 50.32995 | 3.87472 | 19278 ft | 426 kts | 171° |
| 2026-04-30 10:22 | 50.31045 | 3.87803 | 19280 ft | 426 kts | 171° |
| 2026-04-30 10:22 | 50.28091 | 3.88307 | 19280 ft | 425 kts | 171° |
| 2026-04-30 10:22 | 50.24187 | 3.88976 | 19271 ft | 425 kts | 171° |
| 2026-04-30 10:22 | 50.21239 | 3.89484 | 19271 ft | 426 kts | 171° |
| 2026-04-30 10:23 | 50.19289 | 3.89821 | 19272 ft | 426 kts | 171° |
| 2026-04-30 10:23 | 50.16341 | 3.90328 | 19276 ft | 426 kts | 171° |
| 2026-04-30 10:23 | 50.13390 | 3.90828 | 19278 ft | 426 kts | 171° |
| 2026-04-30 10:23 | 50.10436 | 3.91325 | 19286 ft | 426 kts | 171° |
| 2026-04-30 10:24 | 50.07487 | 3.91821 | 19282 ft | 425 kts | 171° |
| 2026-04-30 10:24 | 50.04544 | 3.92318 | 19286 ft | 425 kts | 171° |
| 2026-04-30 10:24 | 50.01635 | 3.92808 | 19278 ft | 425 kts | 171° |
| 2026-04-30 10:24 | 49.98696 | 3.93301 | 19274 ft | 424 kts | 171° |
| 2026-04-30 10:25 | 49.95753 | 3.93795 | 19277 ft | 424 kts | 171° |
| 2026-04-30 10:25 | 49.92811 | 3.94287 | 19279 ft | 424 kts | 171° |
| 2026-04-30 10:25 | 49.89873 | 3.94783 | 19265 ft | 424 kts | 170° |
| 2026-04-30 10:25 | 49.86940 | 3.95280 | 19270 ft | 424 kts | 171° |
| 2026-04-30 10:26 | 49.84009 | 3.95776 | 19270 ft | 424 kts | 171° |
| 2026-04-30 10:26 | 49.81073 | 3.96266 | 19257 ft | 424 kts | 171° |
| 2026-04-30 10:26 | 49.78185 | 3.96747 | 19259 ft | 424 kts | 171° |
| 2026-04-30 10:26 | 49.75252 | 3.97237 | 19258 ft | 423 kts | 170° |
| 2026-04-30 10:27 | 49.72319 | 3.97725 | 19260 ft | 423 kts | 171° |
| 2026-04-30 10:27 | 49.69389 | 3.98213 | 19259 ft | 423 kts | 171° |
| 2026-04-30 10:27 | 49.66461 | 3.98702 | 19260 ft | 423 kts | 171° |
| 2026-04-30 10:27 | 49.63550 | 3.99188 | 19249 ft | 412 kts | 171° |
| 2026-04-30 10:28 | 49.60728 | 3.99335 | 19244 ft | 402 kts | 182° |
| 2026-04-30 10:28 | 49.58010 | 3.98284 | 19247 ft | 405 kts | 200° |
| 2026-04-30 10:28 | 49.55628 | 3.96041 | 19247 ft | 411 kts | 218° |
| 2026-04-30 10:28 | 49.53749 | 3.92706 | 19239 ft | 415 kts | 234° |
| 2026-04-30 10:29 | 49.52170 | 3.88964 | 19238 ft | 417 kts | 235° |
| 2026-04-30 10:29 | 49.50596 | 3.85227 | 19237 ft | 416 kts | 235° |
| 2026-04-30 10:29 | 49.49021 | 3.81488 | 19239 ft | 416 kts | 235° |
| 2026-04-30 10:29 | 49.47629 | 3.77572 | 19238 ft | 419 kts | 245° |
| 2026-04-30 10:30 | 49.46724 | 3.73355 | 19200 ft | 409 kts | 255° |
| 2026-04-30 10:30 | 49.46037 | 3.69183 | 19081 ft | 395 kts | 254° |
| 2026-04-30 10:30 | 49.45372 | 3.65215 | 18964 ft | 382 kts | 254° |
| 2026-04-30 10:30 | 49.44712 | 3.61332 | 18847 ft | 370 kts | 254° |
| 2026-04-30 10:31 | 49.44067 | 3.57562 | 18723 ft | 359 kts | 253° |
| 2026-04-30 10:31 | 49.43439 | 3.53894 | 18523 ft | 351 kts | 253° |
| 2026-04-30 10:31 | 49.42822 | 3.50285 | 18187 ft | 347 kts | 253° |
| 2026-04-30 10:31 | 49.42210 | 3.46709 | 17796 ft | 345 kts | 253° |
| 2026-04-30 10:32 | 49.41436 | 3.43239 | 17377 ft | 343 kts | 245° |
| 2026-04-30 10:32 | 49.40528 | 3.39866 | 17027 ft | 341 kts | 245° |
| 2026-04-30 10:32 | 49.39634 | 3.36517 | 16701 ft | 338 kts | 245° |
| 2026-04-30 10:32 | 49.38747 | 3.33189 | 16336 ft | 336 kts | 245° |
| 2026-04-30 10:33 | 49.37861 | 3.29867 | 15972 ft | 335 kts | 244° |
| 2026-04-30 10:33 | 49.36975 | 3.26555 | 15641 ft | 334 kts | 245° |
| 2026-04-30 10:33 | 49.36093 | 3.23268 | 15324 ft | 331 kts | 245° |
| 2026-04-30 10:33 | 49.35217 | 3.20011 | 15007 ft | 329 kts | 245° |
| 2026-04-30 10:34 | 49.34355 | 3.16816 | 14680 ft | 328 kts | 244° |
| 2026-04-30 10:34 | 49.33481 | 3.13580 | 14348 ft | 327 kts | 244° |
| 2026-04-30 10:34 | 49.32610 | 3.10356 | 14068 ft | 325 kts | 244° |
| 2026-04-30 10:34 | 49.31748 | 3.07176 | 13777 ft | 321 kts | 245° |
| 2026-04-30 10:35 | 49.30892 | 3.04025 | 13429 ft | 319 kts | 244° |
| 2026-04-30 10:35 | 49.30039 | 3.00888 | 13055 ft | 318 kts | 244° |
| 2026-04-30 10:35 | 49.29198 | 2.97797 | 12686 ft | 317 kts | 245° |
| 2026-04-30 10:35 | 49.28353 | 2.94692 | 12523 ft | 316 kts | 244° |
| 2026-04-30 10:36 | 49.27508 | 2.91589 | 12453 ft | 315 kts | 245° |
| 2026-04-30 10:36 | 49.26664 | 2.88489 | 12382 ft | 316 kts | 245° |
| 2026-04-30 10:36 | 49.25813 | 2.85378 | 12316 ft | 316 kts | 244° |
| 2026-04-30 10:36 | 49.24958 | 2.82258 | 12101 ft | 317 kts | 245° |
| 2026-04-30 10:37 | 49.24108 | 2.79159 | 11850 ft | 314 kts | 245° |
| 2026-04-30 10:37 | 49.23269 | 2.76098 | 11603 ft | 311 kts | 245° |
| 2026-04-30 10:37 | 49.22430 | 2.73039 | 11354 ft | 311 kts | 244° |
| 2026-04-30 10:37 | 49.21592 | 2.69986 | 11119 ft | 311 kts | 244° |
| 2026-04-30 10:38 | 49.20760 | 2.66976 | 10874 ft | 310 kts | 244° |
| 2026-04-30 10:38 | 49.19922 | 2.63946 | 10636 ft | 307 kts | 244° |
| 2026-04-30 10:38 | 49.19099 | 2.60960 | 10401 ft | 304 kts | 244° |
| 2026-04-30 10:38 | 49.18362 | 2.57930 | 10161 ft | 305 kts | 253° |
| 2026-04-30 10:39 | 49.18051 | 2.54728 | 10008 ft | 307 kts | 265° |
| 2026-04-30 10:39 | 49.17991 | 2.51457 | 9880 ft | 308 kts | 266° |
| 2026-04-30 10:39 | 49.17924 | 2.48189 | 9748 ft | 307 kts | 266° |
| 2026-04-30 10:39 | 49.17851 | 2.44930 | 9618 ft | 307 kts | 266° |
| 2026-04-30 10:40 | 49.17774 | 2.41677 | 9484 ft | 306 kts | 266° |
| 2026-04-30 10:40 | 49.17696 | 2.38427 | 9352 ft | 304 kts | 265° |
| 2026-04-30 10:40 | 49.17593 | 2.35232 | 9225 ft | 305 kts | 264° |
| 2026-04-30 10:40 | 49.17411 | 2.32010 | 9096 ft | 304 kts | 262° |
| 2026-04-30 10:41 | 49.17189 | 2.28780 | 8969 ft | 305 kts | 261° |
| 2026-04-30 10:41 | 49.16958 | 2.25557 | 8753 ft | 303 kts | 261° |
| 2026-04-30 10:41 | 49.16731 | 2.22359 | 8419 ft | 302 kts | 262° |
| 2026-04-30 10:41 | 49.16505 | 2.19189 | 8060 ft | 298 kts | 260° |
| 2026-04-30 10:42 | 49.15863 | 2.16327 | 7722 ft | 283 kts | 233° |
| 2026-04-30 10:42 | 49.14541 | 2.14241 | 7396 ft | 267 kts | 207° |
| 2026-04-30 10:42 | 49.12878 | 2.13246 | 7076 ft | 251 kts | 183° |
| 2026-04-30 10:42 | 49.11197 | 2.13327 | 6782 ft | 236 kts | 163° |
| 2026-04-30 10:43 | 49.09635 | 2.13943 | 6495 ft | 229 kts | 161° |
| 2026-04-30 10:43 | 49.08117 | 2.14542 | 6213 ft | 222 kts | 161° |
| 2026-04-30 10:43 | 49.06631 | 2.15126 | 5937 ft | 217 kts | 161° |
| 2026-04-30 10:43 | 49.05185 | 2.15696 | 5682 ft | 212 kts | 161° |
| 2026-04-30 10:44 | 49.03758 | 2.16266 | 5295 ft | 213 kts | 159° |
| 2026-04-30 10:44 | 49.02469 | 2.17264 | 4866 ft | 208 kts | 139° |
| 2026-04-30 10:44 | 49.01507 | 2.18850 | 4641 ft | 195 kts | 121° |
| 2026-04-30 10:44 | 49.00982 | 2.20620 | 4469 ft | 186 kts | 105° |
| 2026-04-30 10:45 | 49.00820 | 2.22569 | 4238 ft | 186 kts | 91° |
| 2026-04-30 10:45 | 49.00923 | 2.24527 | 3991 ft | 184 kts | 88° |
| 2026-04-30 10:45 | 49.01032 | 2.26446 | 3753 ft | 179 kts | 88° |
| 2026-04-30 10:45 | 49.01137 | 2.28310 | 3524 ft | 174 kts | 89° |
| 2026-04-30 10:46 | 49.01239 | 2.30119 | 3296 ft | 167 kts | 88° |
| 2026-04-30 10:46 | 49.01335 | 2.31820 | 3080 ft | 154 kts | 89° |
| 2026-04-30 10:46 | 49.01423 | 2.33371 | 2888 ft | 137 kts | 89° |
| 2026-04-30 10:46 | 49.01498 | 2.34712 | 2713 ft | 121 kts | 89° |
| 2026-04-30 10:47 | 49.01566 | 2.35960 | 2556 ft | 118 kts | 90° |
| 2026-04-30 10:47 | 49.01634 | 2.37206 | 2395 ft | 118 kts | 89° |
| 2026-04-30 10:47 | 49.01703 | 2.38456 | 2242 ft | 118 kts | 89° |
| 2026-04-30 10:47 | 49.01772 | 2.39707 | 2086 ft | 120 kts | 88° |
| 2026-04-30 10:48 | 49.01841 | 2.40963 | 1918 ft | 119 kts | 88° |
| 2026-04-30 10:48 | 49.01910 | 2.42214 | 1752 ft | 117 kts | 88° |
| 2026-04-30 10:48 | 49.01978 | 2.43451 | 1603 ft | 117 kts | 87° |
| 2026-04-30 10:48 | 49.02046 | 2.44698 | 1433 ft | 118 kts | 87° |
| 2026-04-30 10:49 | 49.02115 | 2.45942 | 1276 ft | 117 kts | 86° |
| 2026-04-30 10:49 | 49.02182 | 2.47169 | 1117 ft | 117 kts | 86° |
| 2026-04-30 10:49 | 49.02250 | 2.48391 | 940 ft | 118 kts | 86° |
| 2026-04-30 10:49 | 49.02317 | 2.49631 | 772 ft | 116 kts | 86° |
| 2026-04-30 10:50 | 49.02383 | 2.50860 | 577 ft | 116 kts | 87° |
| 2026-04-30 10:50 | 49.02452 | 2.52081 | 410 ft | 115 kts | 87° |
| 2026-04-30 10:50 | 49.02514 | 2.53254 | 356 ft | 99 kts | 85° |
| 2026-04-30 10:50 | 49.02559 | 2.54103 | 354 ft | 70 kts | 85° |
| 2026-04-30 10:51 | 49.02597 | 2.54798 | 353 ft | 60 kts | 85° |
| 2026-04-30 10:51 | 49.02560 | 2.55323 | 357 ft | 33 kts | 114° |
| 2026-04-30 10:51 | 49.02478 | 2.55577 | 356 ft | 22 kts | 126° |
| 2026-04-30 10:51 | 49.02333 | 2.55623 | 355 ft | 22 kts | 176° |
| 2026-04-30 10:52 | 49.02178 | 2.55641 | 362 ft | 22 kts | 175° |
| 2026-04-30 10:52 | 49.02066 | 2.55544 | 356 ft | 21 kts | 260° |
| 2026-04-30 10:52 | 49.02053 | 2.55322 | 354 ft | 21 kts | 265° |
| 2026-04-30 10:52 | 49.02042 | 2.55097 | 354 ft | 21 kts | 266° |
| 2026-04-30 10:53 | 49.02028 | 2.54874 | 360 ft | 21 kts | 269° |
| 2026-04-30 10:53 | 49.02018 | 2.54651 | 354 ft | 21 kts | 265° |
| 2026-04-30 10:53 | 49.02006 | 2.54428 | 354 ft | 21 kts | 265° |
| 2026-04-30 10:53 | 49.01985 | 2.54203 | 362 ft | 21 kts | 245° |
| 2026-04-30 10:54 | 49.01859 | 2.54132 | 361 ft | 21 kts | 178° |
| 2026-04-30 10:54 | 49.01792 | 2.53970 | 355 ft | 20 kts | 253° |
| 2026-04-30 10:54 | 49.01726 | 2.53799 | 358 ft | 17 kts | 227° |
| 2026-04-30 10:54 | 49.01641 | 2.53690 | 361 ft | 15 kts | 213° |
| 2026-04-30 10:55 | 49.01565 | 2.53710 | 357 ft | 10 kts | 150° |
| 2026-04-30 10:55 | 49.01509 | 2.53750 | 360 ft | 8 kts | 156° |
| 2026-04-30 10:55 | 49.01487 | 2.53764 | 359 ft | 0 kts | 156° |